Ocean Giant — WDG4379 — position and weather

sailwx.info

Track history (hours):
 
Tides and Currents Weather Stations Pressure Air Temp Water Temp Dewpoint Dewpoint Depression Visibility Wind Speed Wind Dir Waves Ship Positions

Ocean Giant

Owner: Crowley Technical Management, Inc., Jacksonville, FL. More information available from US FCC via Universal Licensing System and Coast Guard Vessel Documentation Center.

Last reported at 2014-Oct-19 12:00 UTC. Time now 2014-Oct-23 06:46 UTC.
Position N 19°00' E 039°00'.

Length 166 m; draft 7.9 m.

Type: Cargo ship. MMSI: 367535950.

Wind from 170 at 5 knots

Waves 1.0 meters (3 feet), 3 second period

Barometer 1009.5 mb
Air temperature 30.0 ° C
Visibility: greater than 10.8 NM
Dewpoint 25.6 ° C
Water temperature 28.9 ° C

Date/timePositionNaut miles runAvg speedWind from/ knotsBaromVisibWave heightAir tempDewpointWater temp
2014-Oct-19 12:00N 19°00' E 039°00'17714.8 170 / 51009.510.8 1.030.025.628.9
2014-Oct-19 00:00N 21°36' E 037°30'18015.0 350 / 131010.027.0 1.525.622.427.2
2014-Oct-18 12:00N 24°18' E 036°06'   330 / 191011.827.0 2.028.922.625.0
2014-Oct-13 00:00N 35°24' E 017°00'2114.6 180 / 91018.010.8 1.022.218.022.8
2014-Oct-12 22:34N 35°30' E 016°36'1514.4
2014-Oct-12 21:33N 35°34' E 016°18'1614.5
2014-Oct-12 20:28N 35°39' E 015°60'1314.6
2014-Oct-12 19:33N 35°42' E 015°44'1615.0
2014-Oct-12 18:29N 35°46' E 015°25'1415.2
2014-Oct-12 17:32N 35°51' E 015°08'1414.6
2014-Oct-12 16:33N 35°55' E 014°51'1 1.3
2014-Oct-12 15:32N 35°55' E 014°50'0 0.0
2014-Oct-12 14:20N 35°55' E 014°50'0 0.0
2014-Oct-12 13:32N 35°55' E 014°50'0 0.0
2014-Oct-12 10:32N 35°55' E 014°50'0 0.0
2014-Oct-12 09:32N 35°55' E 014°50'0 0.0
2014-Oct-12 07:20N 35°55' E 014°50'0 0.0
2014-Oct-12 06:26N 35°55' E 014°50'0 0.0
2014-Oct-12 05:32N 35°55' E 014°50'0 0.0
2014-Oct-12 04:26N 35°55' E 014°50'1 1.5
2014-Oct-12 03:33N 35°55' E 014°48'1110.7
2014-Oct-12 02:33N 36°01' E 014°37'1212.4
2014-Oct-12 01:33N 36°07' E 014°24'2812.6
2014-Oct-11 23:17N 36°19' E 013°51'912.6
2014-Oct-11 22:33N 36°22' E 013°41'1212.5
2014-Oct-11 21:33N 36°28' E 013°27'1312.3
2014-Oct-11 20:31N 36°33' E 013°12'1212.2
2014-Oct-11 19:33N 36°36' E 012°58'1212.3
2014-Oct-11 18:33N 36°40' E 012°44'1212.0
2014-Oct-11 17:33N 36°46' E 012°31'1312.2
2014-Oct-11 16:29N 36°51' E 012°15'1112.4
2014-Oct-11 15:33N 36°57' E 012°03'7612.3
2014-Oct-11 09:23N 37°29' E 010°37'4112.5
2014-Oct-11 06:06N 37°38' E 009°46'914.2
2014-Oct-11 05:28N 37°39' E 009°35'1414.0
2014-Oct-11 04:30N 37°41' E 009°18'1313.7
2014-Oct-11 03:33N 37°42' E 009°01'1313.6
2014-Oct-11 02:33N 37°43' E 008°44'1413.6
2014-Oct-11 01:33N 37°42' E 008°27'1313.1
2014-Oct-11 00:32N 37°41' E 008°11'1018.1
2014-Oct-11 00:00N 37°36' E 008°00'714.7 290 / 51015.010.8 1.023.321.721.1
2014-Oct-10 23:33N 37°41' E 007°54'9413.4
2014-Oct-10 16:34N 37°33' E 005°56'1513.0
2014-Oct-10 15:26N 37°33' E 005°38'2913.1
2014-Oct-10 13:12N 37°30' E 005°01'1213.3
2014-Oct-10 12:16N 37°29' E 004°45'1013.4
2014-Oct-10 11:29N 37°28' E 004°32'6713.5
2014-Oct-10 06:30N 37°17' E 003°09'1313.7
2014-Oct-10 05:33N 37°13' E 002°53'1414.0
2014-Oct-10 04:33N 37°10' E 002°36'1514.3
2014-Oct-10 03:32N 37°07' E 002°18'1413.7
2014-Oct-10 02:33N 37°04' E 002°02'1413.4
2014-Oct-10 01:32N 37°01' E 001°45'1413.7
2014-Oct-10 00:31N 36°58' E 001°28'1313.8
2014-Oct-09 23:34N 36°55' E 001°12'1414.4
2014-Oct-09 22:33N 36°52' E 000°55'1514.1
2014-Oct-09 21:30N 36°47' E 000°37'1313.6
2014-Oct-09 20:31N 36°44' E 000°21'1613.5
2014-Oct-09 19:18N 36°40' E 000°01'1013.5
2014-Oct-09 18:33N 36°38' W 000°12'2 4.1
2014-Oct-09 18:00N 36°36' W 000°12'1329.5 230 / 131013.227.0 1.023.321.020.0
2014-Oct-09 17:33N 36°36' W 000°28'1413.9
2014-Oct-09 16:31N 36°33' W 000°46'1313.3
2014-Oct-09 15:33N 36°31' W 001°01'1413.7
2014-Oct-09 14:33N 36°27' W 001°18'1413.9
2014-Oct-09 13:33N 36°24' W 001°35'1414.0
2014-Oct-09 12:33N 36°21' W 001°52'  
Track history (hours):
 
Tides and Currents Weather Stations Pressure Air Temp Water Temp Dewpoint Dewpoint Depression Visibility Wind Speed Wind Dir Waves Ship Positions

Ocean Giant

Owner: Crowley Technical Management, Inc., Jacksonville, FL. More information available from US FCC via Universal Licensing System and Coast Guard Vessel Documentation Center.

Last reported at 2014-Oct-19 12:00 UTC. Time now 2014-Oct-23 06:46 UTC.
Position N 19°00' E 039°00'.

Length 166 m; draft 7.9 m.

Type: Cargo ship. MMSI: 367535950.

Wind from 170 at 5 knots

Waves 1.0 meters (3 feet), 3 second period

Barometer 1009.5 mb
Air temperature 30.0 ° C
Visibility: greater than 10.8 NM
Dewpoint 25.6 ° C
Water temperature 28.9 ° C

Date/timePositionNaut miles runAvg speedWind from/ knotsBaromVisibWave heightAir tempDewpointWater temp
2014-Oct-19 12:00N 19°00' E 039°00'17714.8 170 / 51009.510.8 1.030.025.628.9
2014-Oct-19 00:00N 21°36' E 037°30'18015.0 350 / 131010.027.0 1.525.622.427.2
2014-Oct-18 12:00N 24°18' E 036°06'   330 / 191011.827.0 2.028.922.625.0
2014-Oct-13 00:00N 35°24' E 017°00'2114.6 180 / 91018.010.8 1.022.218.022.8
2014-Oct-12 22:34N 35°30' E 016°36'1514.4
2014-Oct-12 21:33N 35°34' E 016°18'1614.5
2014-Oct-12 20:28N 35°39' E 015°60'1314.6
2014-Oct-12 19:33N 35°42' E 015°44'1615.0
2014-Oct-12 18:29N 35°46' E 015°25'1415.2
2014-Oct-12 17:32N 35°51' E 015°08'1414.6
2014-Oct-12 16:33N 35°55' E 014°51'1 1.3
2014-Oct-12 15:32N 35°55' E 014°50'0 0.0
2014-Oct-12 14:20N 35°55' E 014°50'0 0.0
2014-Oct-12 13:32N 35°55' E 014°50'0 0.0
2014-Oct-12 10:32N 35°55' E 014°50'0 0.0
2014-Oct-12 09:32N 35°55' E 014°50'0 0.0
2014-Oct-12 07:20N 35°55' E 014°50'0 0.0
2014-Oct-12 06:26N 35°55' E 014°50'0 0.0
2014-Oct-12 05:32N 35°55' E 014°50'0 0.0
2014-Oct-12 04:26N 35°55' E 014°50'1 1.5
2014-Oct-12 03:33N 35°55' E 014°48'1110.7
2014-Oct-12 02:33N 36°01' E 014°37'1212.4
2014-Oct-12 01:33N 36°07' E 014°24'2812.6
2014-Oct-11 23:17N 36°19' E 013°51'912.6
2014-Oct-11 22:33N 36°22' E 013°41'1212.5
2014-Oct-11 21:33N 36°28' E 013°27'1312.3
2014-Oct-11 20:31N 36°33' E 013°12'1212.2
2014-Oct-11 19:33N 36°36' E 012°58'1212.3
2014-Oct-11 18:33N 36°40' E 012°44'1212.0
2014-Oct-11 17:33N 36°46' E 012°31'1312.2
2014-Oct-11 16:29N 36°51' E 012°15'1112.4
2014-Oct-11 15:33N 36°57' E 012°03'7612.3
2014-Oct-11 09:23N 37°29' E 010°37'4112.5
2014-Oct-11 06:06N 37°38' E 009°46'914.2
2014-Oct-11 05:28N 37°39' E 009°35'1414.0
2014-Oct-11 04:30N 37°41' E 009°18'1313.7
2014-Oct-11 03:33N 37°42' E 009°01'1313.6
2014-Oct-11 02:33N 37°43' E 008°44'1413.6
2014-Oct-11 01:33N 37°42' E 008°27'1313.1
2014-Oct-11 00:32N 37°41' E 008°11'1018.1
2014-Oct-11 00:00N 37°36' E 008°00'714.7 290 / 51015.010.8 1.023.321.721.1
2014-Oct-10 23:33N 37°41' E 007°54'9413.4
2014-Oct-10 16:34N 37°33' E 005°56'1513.0
2014-Oct-10 15:26N 37°33' E 005°38'2913.1
2014-Oct-10 13:12N 37°30' E 005°01'1213.3
2014-Oct-10 12:16N 37°29' E 004°45'1013.4
2014-Oct-10 11:29N 37°28' E 004°32'6713.5
2014-Oct-10 06:30N 37°17' E 003°09'1313.7
2014-Oct-10 05:33N 37°13' E 002°53'1414.0
2014-Oct-10 04:33N 37°10' E 002°36'1514.3
2014-Oct-10 03:32N 37°07' E 002°18'1413.7
2014-Oct-10 02:33N 37°04' E 002°02'1413.4
2014-Oct-10 01:32N 37°01' E 001°45'1413.7
2014-Oct-10 00:31N 36°58' E 001°28'1313.8
2014-Oct-09 23:34N 36°55' E 001°12'1414.4
2014-Oct-09 22:33N 36°52' E 000°55'1514.1
2014-Oct-09 21:30N 36°47' E 000°37'1313.6
2014-Oct-09 20:31N 36°44' E 000°21'1613.5
2014-Oct-09 19:18N 36°40' E 000°01'1013.5
2014-Oct-09 18:33N 36°38' W 000°12'2 4.1
2014-Oct-09 18:00N 36°36' W 000°12'1329.5 230 / 131013.227.0 1.023.321.020.0
2014-Oct-09 17:33N 36°36' W 000°28'1413.9
2014-Oct-09 16:31N 36°33' W 000°46'1313.3
2014-Oct-09 15:33N 36°31' W 001°01'1413.7
2014-Oct-09 14:33N 36°27' W 001°18'1413.9
2014-Oct-09 13:33N 36°24' W 001°35'1414.0
2014-Oct-09 12:33N 36°21' W 001°52'  

Dump ship's entire track history